ADDS METAR Data INFO
IDs: Format: Raw Decoded Include TAF

Data at: 1612 UTC 14 Aug 2018

KXBP 141415Z AUTO 17009KT 10SM TS SCT022 BKN060 OVC090 22/20 A2998 RMK AO2 P0001 T02150195
KXBP 141355Z AUTO 17010G17KT 5SM +RA SCT018 BKN029 OVC090 22/19 A2997 RMK AO2 P0012 T02200191
KXBP 141100Z AUTO 00000KT 10SM SCT080 OVC100 22/22 A2994 RMK AO2 T02240224
KXBP 141040Z AUTO 00000KT 5SM BR OVC100 22/22 A2994 RMK AO2 T02220222
KXBP 140250Z AUTO 12005KT 10SM OVC090 23/23 A2995 RMK AO2 T02250225
KXBP 140235Z AUTO 00000KT 10SM BKN090 OVC110 23/23 A2995 RMK AO2 LTG DSNT SW T02250225
KXBP 140215Z AUTO 00000KT 10SM SCT070 BKN090 BKN110 23/23 A2995 RMK AO2 T02250225
KXBP 140155Z AUTO 25003KT 10SM BKN100 23/23 A2995 RMK AO2 T02250225
KXBP 140135Z AUTO 26003KT 10SM SCT080 BKN090 23/23 A2994 RMK AO2 T02250225
KXBP 140110Z AUTO 00000KT 10SM CLR 23/23 A2994 RMK AO2 T02250225
KXBP 140050Z AUTO 27004KT 10SM CLR 23/23 A2994 RMK AO2 T02250225
KXBP 132010Z AUTO 17009KT 10SM RA SCT036 SCT044 BKN050 22/22 A2999 RMK AO2 LTG DSNT ALQS T02230223
KXBP 131955Z AUTO 18006KT 10SM -VCTSRA SCT036 BKN043 BKN050 22/22 A3000 RMK AO2 LTG DSNT ALQS P0013 T02200220
KXBP 131935Z AUTO 17007KT 5SM TSRA SCT036 BKN047 OVC085 21/21 A3000 RMK AO2 LTG DSNT ALQS P0011 T02130213
KXBP 131915Z AUTO 16008G18KT 4SM TSRA SCT017 BKN030 OVC060 22/22 A3000 RMK AO2 LTG DSNT NE THRU SW P0008 T02210221
KXBP 131855Z AUTO 19014G18KT 4SM +TSRA SCT026 BKN034 OVC110 23/23 A2999 RMK AO2 LTG DSNT ALQS P0058 T02250225
KXBP 131835Z AUTO 19011KT 4SM TSRA SCT012 BKN027 BKN040 23/23 A2999 RMK AO2 LTG DSNT ALQS P0049 T02310231
KXBP 131815Z AUTO 19010KT 3SM +TSRA SCT013 BKN020 OVC050 23/22 A3000 RMK AO2 LTG DSNT NE THRU SW P0017 T02310222
KXBP 131755Z AUTO 22010G16KT 4SM VCTSRA SCT023 BKN029 OVC039 26/22 A3000 RMK AO2 LTG DSNT NE THRU SW P0002 60003 T02620223 10284 20220
KXBP 131735Z AUTO 17010KT 10SM VCTS SCT025 BKN030 BKN036 28/22 A2999 RMK AO2 LTG DSNT NE E AND SW T02780224
KXBP 131715Z AUTO 17006KT 10SM SCT018 SCT024 BKN030 27/23 A3000 RMK AO2 LTG DSNT NE AND E T02740233
KXBP 131655Z AUTO 18007KT 10SM VCTS SCT016 SCT024 BKN030 27/24 A3001 RMK AO2 LTG DSNT NE AND E T02730237
KXBP 131635Z AUTO 17006KT 10SM BKN014 BKN027 OVC080 27/24 A3002 RMK AO2 T02650239
KXBP 131615Z AUTO 15006KT 10SM BKN013 OVC017 26/25 A3003 RMK AO2 T02570248
KXBP 131555Z AUTO 14005KT 7SM BKN009 OVC015 25/25 A3004 RMK AO2 T02460246
KXBP 131535Z AUTO 12004KT 7SM BKN009 OVC013 25/25 A3004 RMK AO2 T02450245
KXBP 131515Z AUTO 00000KT 10SM BKN009 OVC014 24/24 A3005 RMK AO2 T02390239
KXBP 131455Z AUTO 13003KT 10SM SCT007 BKN012 BKN075 24/24 A3005 RMK AO2 60001 T02380238
KXBP 131435Z AUTO 00000KT 10SM SCT007 BKN012 OVC120 24/24 A3005 RMK AO2 T02350235
KXBP 131415Z AUTO 15003KT 10SM BKN007 BKN120 23/23 A3005 RMK AO2 T02320232
KXBP 131350Z AUTO 00000KT 10SM BKN005 23/23 A3005 RMK AO2 T02280228
KXBP 131335Z AUTO 15003KT 10SM BKN005 BKN100 23/23 A3005 RMK AO2 T02260226
KXBP 131315Z AUTO 17005KT 10SM SCT100 23/23 A3005 RMK AO2 T02250225
KXBP 131255Z AUTO 16004KT 10SM -DZ CLR 22/22 A3005 RMK AO2 LTG DSNT N P0001 T02220222
KXBP 131235Z AUTO 16004KT 10SM CLR 22/22 A3004 RMK AO2 P0001 T02210221
KXBP 131215Z AUTO 14004KT 10SM -RA CLR 22/22 A3004 RMK AO2 P0001 T02200220
KXBP 131155Z AUTO 15003KT 10SM DZ SCT046 SCT060 BKN075 22/22 A3004 RMK AO2 LTG DSNT NE P0011 60076 70076 T02200220 10238 20217
KXBP 131135Z AUTO 14003KT 7SM -RA SCT019 BKN043 OVC065 22/22 A3005 RMK AO2 LTG DSNT SW P0010 T02180218
KXBP 131115Z AUTO 14004KT 5SM +RA SCT015 BKN028 OVC060 22/22 A3005 RMK AO2 LTG DSNT E AND SW P0006 T02200220
KXBP 131055Z AUTO 15006KT 7SM RA SCT042 BKN048 OVC060 22/22 A3006 RMK AO2 LTG DSNT E P0015 T02170217
KXBP 131035Z AUTO 13003KT 7SM VCTSRA SCT032 BKN043 OVC050 22/22 A3005 RMK AO2 LTG DSNT E P0010 T02180218
KXBP 131015Z AUTO 00000KT 7SM VCTSRA SCT036 BKN045 OVC049 22/22 A3004 RMK AO2 LTG DSNT E P0005 T02180218
KXBP 130955Z AUTO 16004KT 7SM TSRA SCT024 SCT037 OVC046 22/22 A3005 RMK AO2 P0049 T02200220
KXBP 130935Z AUTO 16005KT 5SM RA SCT010 BKN023 OVC037 22/22 A3005 RMK AO2 LTG DSNT S P0043 T02200220
KXBP 130915Z AUTO 18011G18KT 2SM /VCTSRA BKN012 BKN022 OVC037 23/22 A3006 RMK AO2 LTG DSNT N AND S P0030 T02250219
KXBP 130855Z AUTO 19006KT 10SM -RA SCT050 SCT070 BKN120 23/21 A3006 RMK AO2 LTG DSNT S T02330211
KXBP 130835Z AUTO 19004KT 10SM SCT100 BKN120 23/21 A3005 RMK AO2 T02330212
KXBP 130815Z AUTO 16003KT 10SM SCT100 SCT110 23/21 A3005 RMK AO2 T02330213
KXBP 130755Z AUTO 17004KT 10SM CLR 24/21 A3005 RMK AO2 T02350211
KXBP 130735Z AUTO 16007KT 10SM SCT100 24/21 A3005 RMK AO2 T02350210
KXBP 130715Z AUTO 15006KT 10SM BKN100 24/21 A3005 RMK AO2 T02360210
KXBP 130655Z AUTO 16005KT 10SM SCT100 24/21 A3005 RMK AO2 LTG DSNT SW T02350210
KXBP 130635Z AUTO 14007KT 10SM SCT110 24/21 A3005 RMK AO2 T02360207
KXBP 130615Z AUTO 13005KT 10SM SCT110 24/21 A3005 RMK AO2 T02370206
KXBP 130555Z AUTO 15003KT 10SM CLR 24/21 A3005 RMK AO2 T02380206 10289 20237 403120220
KXBP 130535Z AUTO 00000KT 10SM SCT120 24/21 A3005 RMK AO2 T02390205
KXBP 130515Z AUTO 00000KT 10SM SCT110 24/21 A3005 RMK AO2 T02400205
KXBP 130455Z AUTO 00000KT 10SM SCT100 24/21 A3005 RMK AO2 T02400205
KXBP 130435Z AUTO 16003KT 10SM BKN100 24/20 A3005 RMK AO2 T02410203
KXBP 130415Z AUTO 18004KT 10SM CLR 24/20 A3005 RMK AO2 T02420202